Time;durP1;ratioP1;P1;durP2;ratioP2;P2;SDS_P1;SDS_P2;PMS_P1;PMS_P2;Temp;Humidity;BMP_temperature;BMP_pressure;BME280_temperature;BME280_humidity;BME280_pressure;Samples;Min_cycle;Max_cycle;Signal;HPM_P1;HPM_P2
2022/08/19 00:01:47;;;;;;;1.45;0.90;;;17.70;99.90;;;;;;4996129;28;20042;-73
2022/08/19 00:04:24;;;;;;;1.50;1.00;;;17.70;99.90;;;;;;5005126;28;20519;-73
2022/08/19 00:06:56;;;;;;;1.13;0.80;;;17.70;99.90;;;;;;5031945;28;20041;-73
2022/08/19 00:09:29;;;;;;;1.10;0.85;;;17.70;99.90;;;;;;5033503;28;20047;-73
2022/08/19 00:12:01;;;;;;;1.95;1.75;;;17.70;99.90;;;;;;5029979;28;20411;-73
2022/08/19 00:14:31;;;;;;;1.65;1.27;;;17.80;99.90;;;;;;4996909;28;20073;-73
2022/08/19 00:17:03;;;;;;;2.65;1.52;;;17.80;99.90;;;;;;5017362;28;20112;-73
2022/08/19 00:19:36;;;;;;;1.92;1.73;;;17.80;99.90;;;;;;5034197;28;20049;-73
2022/08/19 00:22:08;;;;;;;2.60;1.88;;;17.80;99.90;;;;;;5016431;28;20057;-73
2022/08/19 00:24:41;;;;;;;3.95;3.50;;;17.80;99.90;;;;;;4999758;28;20063;-73
2022/08/19 00:27:13;;;;;;;3.50;3.00;;;17.80;99.90;;;;;;5033579;28;20049;-73
2022/08/19 00:29:44;;;;;;;3.47;3.13;;;17.80;99.90;;;;;;5016766;28;20060;-73
2022/08/19 00:32:17;;;;;;;4.53;3.85;;;17.80;99.90;;;;;;5014616;28;20048;-73
2022/08/19 00:34:48;;;;;;;4.45;4.00;;;17.80;99.90;;;;;;5030987;28;20052;-73
2022/08/19 00:37:23;;;;;;;4.95;4.45;;;17.90;99.90;;;;;;5034055;28;20041;-73
2022/08/19 00:39:55;;;;;;;5.85;5.35;;;17.80;99.90;;;;;;5017306;28;20038;-73
2022/08/19 00:42:28;;;;;;;7.40;6.70;;;17.80;99.90;;;;;;5005798;28;20805;-73
2022/08/19 00:45:00;;;;;;;8.02;7.20;;;17.80;99.90;;;;;;5009857;28;20037;-74
2022/08/19 00:47:31;;;;;;;8.10;7.25;;;17.80;99.90;;;;;;4998043;28;20458;-73
2022/08/19 00:50:04;;;;;;;8.07;7.28;;;17.80;99.90;;;;;;5029293;28;20046;-73
2022/08/19 00:52:41;;;;;;;8.60;7.80;;;17.80;99.90;;;;;;5013604;28;20052;-73
2022/08/19 00:55:19;;;;;;;11.20;10.00;;;17.80;99.90;;;;;;5014586;28;20045;-73
2022/08/19 00:58:04;;;;;;;11.82;10.20;;;17.80;99.90;;;;;;5017124;28;20495;-73
2022/08/19 01:00:36;;;;;;;11.73;10.55;;;17.80;99.90;;;;;;5014456;28;20049;-73
2022/08/19 01:03:11;;;;;;;13.10;11.75;;;17.80;99.90;;;;;;4998726;28;20055;-73
2022/08/19 01:05:45;;;;;;;13.15;11.80;;;17.80;99.90;;;;;;4997028;28;20044;-73
2022/08/19 01:08:18;;;;;;;15.50;13.98;;;17.80;99.90;;;;;;4997367;28;20041;-73
2022/08/19 01:10:54;;;;;;;14.77;13.27;;;17.70;99.90;;;;;;4998390;28;20037;-73
2022/08/19 01:13:26;;;;;;;16.45;14.70;;;17.70;99.90;;;;;;4997536;28;20443;-73
2022/08/19 01:16:04;;;;;;;17.15;15.45;;;17.80;99.90;;;;;;5000686;28;20052;-73
2022/08/19 01:18:40;;;;;;;19.10;17.10;;;17.80;99.90;;;;;;5015395;28;20037;-73
2022/08/19 01:21:22;;;;;;;18.58;16.70;;;17.70;99.90;;;;;;5014179;28;20044;-73
2022/08/19 01:23:54;;;;;;;17.40;15.60;;;17.70;99.90;;;;;;5030822;28;20041;-73
2022/08/19 01:26:27;;;;;;;17.55;15.75;;;17.70;99.90;;;;;;5030951;28;20133;-73
2022/08/19 01:29:00;;;;;;;17.20;15.50;;;17.70;99.90;;;;;;5007704;28;20056;-73
2022/08/19 01:31:32;;;;;;;17.75;15.95;;;17.70;99.90;;;;;;5012924;28;20038;-73
2022/08/19 01:34:04;;;;;;;18.58;16.58;;;17.70;99.90;;;;;;5031414;28;20051;-73
2022/08/19 01:36:41;;;;;;;19.50;17.58;;;17.70;99.90;;;;;;5014574;28;20060;-73
2022/08/19 01:39:21;;;;;;;19.52;17.55;;;17.70;99.90;;;;;;5012689;28;20046;-73
2022/08/19 01:41:54;;;;;;;18.27;15.73;;;17.70;99.90;;;;;;4996674;28;20037;-73
2022/08/19 01:44:25;;;;;;;19.20;16.63;;;17.70;99.90;;;;;;5012608;28;20048;-73
2022/08/19 01:46:57;;;;;;;18.95;16.95;;;17.70;99.90;;;;;;5032475;28;20499;-73
2022/08/19 01:49:30;;;;;;;19.13;17.08;;;17.70;99.90;;;;;;5012200;28;20159;-73
2022/08/19 01:52:03;;;;;;;18.85;16.90;;;17.70;99.90;;;;;;5013164;28;20046;-73
2022/08/19 01:54:35;;;;;;;19.27;17.15;;;17.70;99.90;;;;;;5011692;28;20042;-73
2022/08/19 01:57:11;;;;;;;19.95;17.67;;;17.60;99.90;;;;;;4999229;28;20396;-73
2022/08/19 01:59:44;;;;;;;26.95;19.20;;;17.60;99.90;;;;;;5014157;28;20046;-73
2022/08/19 02:02:15;;;;;;;22.73;20.25;;;17.60;99.90;;;;;;5014415;28;20076;-73
2022/08/19 02:04:48;;;;;;;21.73;18.52;;;17.60;99.90;;;;;;5009475;28;20507;-73
2022/08/19 02:07:21;;;;;;;21.70;19.45;;;17.60;99.90;;;;;;5012725;28;20060;-73
2022/08/19 02:09:52;;;;;;;;;;;17.60;99.90;;;;;;5029961;28;20048;-73
2022/08/19 02:12:24;;;;;;;21.35;18.65;;;17.70;99.90;;;;;;5012521;28;19921;-73
2022/08/19 02:14:56;;;;;;;21.98;19.67;;;17.70;99.90;;;;;;5012107;28;20168;-73
2022/08/19 02:17:29;;;;;;;22.02;19.58;;;17.60;99.90;;;;;;5028802;28;20065;-73
2022/08/19 02:20:01;;;;;;;22.88;20.48;;;17.70;99.90;;;;;;4998569;28;20055;-73
2022/08/19 02:22:33;;;;;;;22.48;20.15;;;17.60;99.90;;;;;;5013194;28;20091;-73
2022/08/19 02:25:00;;;;;;;24.30;21.65;;;17.60;99.90;;;;;;5013557;28;20060;-73
2022/08/19 02:27:33;;;;;;;24.58;21.92;;;17.60;99.90;;;;;;4994807;28;20048;-73
2022/08/19 02:30:07;;;;;;;25.10;21.83;;;17.60;99.90;;;;;;5013525;28;20049;-73
2022/08/19 02:32:39;;;;;;;24.77;22.20;;;17.60;99.90;;;;;;5010359;28;20049;-73
2022/08/19 02:35:13;;;;;;;26.13;23.15;;;17.50;99.90;;;;;;5029267;28;20042;-73
2022/08/19 02:40:35;;;;;;;26.23;22.90;;;17.50;99.90;;;;;;5029063;28;20038;-73
2022/08/19 02:43:08;;;;;;;27.58;22.92;;;17.60;99.90;;;;;;5043194;23;20059;-70
2022/08/19 02:45:40;;;;;;;25.15;22.20;;;17.60;99.90;;;;;;5051376;28;20402;-71
2022/08/19 02:48:11;;;;;;;24.75;21.88;;;17.60;99.90;;;;;;5048970;28;20072;-71
2022/08/19 02:50:44;;;;;;;26.90;23.60;;;17.60;99.90;;;;;;5033996;28;20132;-70
2022/08/19 02:53:15;;;;;;;27.83;24.63;;;17.60;99.90;;;;;;5040407;28;20049;-71
2022/08/19 02:55:48;;;;;;;26.75;23.85;;;17.60;99.90;;;;;;5031891;28;20044;-72
2022/08/19 02:58:21;;;;;;;29.23;23.27;;;17.60;99.90;;;;;;5040429;28;20128;-71
2022/08/19 03:00:55;;;;;;;27.42;23.33;;;17.60;99.90;;;;;;5016579;28;20069;-71
2022/08/19 03:03:27;;;;;;;28.85;25.08;;;17.60;99.90;;;;;;5040938;28;20063;-71
2022/08/19 03:06:08;;;;;;;28.38;25.05;;;17.60;99.90;;;;;;5032751;28;20041;-71
2022/08/19 03:08:43;;;;;;;28.60;24.17;;;17.60;99.90;;;;;;5037268;28;20060;-70
2022/08/19 03:11:21;;;;;;;29.65;25.45;;;17.60;99.90;;;;;;5026790;28;20122;-71
2022/08/19 03:13:54;;;;;;;29.58;25.40;;;17.60;99.90;;;;;;5042944;28;20044;-71
2022/08/19 03:16:29;;;;;;;30.33;24.30;;;17.60;99.90;;;;;;5042812;28;20045;-71
2022/08/19 03:19:01;;;;;;;28.67;25.48;;;17.60;99.90;;;;;;5034093;28;20287;-70
2022/08/19 03:21:34;;;;;;;30.50;24.97;;;17.70;99.90;;;;;;5039128;28;20032;-71
2022/08/19 03:24:08;;;;;;;31.15;26.13;;;17.70;99.90;;;;;;5042118;28;20316;-71
2022/08/19 03:26:52;;;;;;;32.78;27.00;;;17.70;99.90;;;;;;5043900;28;20495;-71
2022/08/19 03:29:28;;;;;;;30.75;26.23;;;17.70;99.90;;;;;;5041093;28;20057;-70
2022/08/19 03:32:03;;;;;;;29.45;26.00;;;17.60;99.90;;;;;;5040360;28;20120;-70
2022/08/19 03:34:37;;;;;;;32.78;26.00;;;17.60;99.90;;;;;;5029928;28;20047;-71
2022/08/19 03:37:14;;;;;;;32.17;27.63;;;17.60;99.90;;;;;;5041389;28;20037;-70
2022/08/19 03:39:46;;;;;;;29.65;25.65;;;17.60;99.90;;;;;;5028081;28;20575;-70
2022/08/19 03:42:18;;;;;;;31.33;26.33;;;17.60;99.90;;;;;;5041742;28;20125;-70
2022/08/19 03:44:50;;;;;;;32.58;27.40;;;17.60;99.90;;;;;;5037267;28;20041;-69
2022/08/19 03:47:17;;;;;;;31.88;28.25;;;17.60;99.90;;;;;;5041552;28;20047;-70
2022/08/19 03:49:48;;;;;;;32.72;27.50;;;17.60;99.90;;;;;;5025343;28;20041;-70
2022/08/19 03:52:20;;;;;;;33.55;27.88;;;17.60;99.90;;;;;;5027808;28;20040;-70
2022/08/19 03:54:52;;;;;;;31.23;27.35;;;17.70;99.90;;;;;;5045052;28;20168;-70
2022/08/19 03:57:24;;;;;;;32.15;26.85;;;17.60;99.90;;;;;;5045826;28;20052;-70
2022/08/19 03:59:55;;;;;;;32.80;26.85;;;17.60;99.90;;;;;;5023914;28;20041;-69
2022/08/19 04:02:30;;;;;;;32.00;27.20;;;17.70;99.90;;;;;;5040225;28;20115;-70
2022/08/19 04:05:02;;;;;;;32.70;27.42;;;17.70;99.90;;;;;;5027147;28;20396;-69
2022/08/19 04:07:34;;;;;;;36.00;28.00;;;17.70;99.90;;;;;;5045603;28;20403;-69
2022/08/19 04:10:05;;;;;;;34.00;28.17;;;17.70;99.90;;;;;;5040683;28;20041;-69
2022/08/19 04:12:38;;;;;;;32.60;27.33;;;17.70;99.90;;;;;;5036038;28;20120;-69
2022/08/19 04:15:10;;;;;;;32.75;26.88;;;17.70;99.90;;;;;;5039407;28;20128;-69
2022/08/19 04:17:42;;;;;;;33.95;27.88;;;17.80;99.90;;;;;;5043416;28;20514;-69
2022/08/19 04:20:14;;;;;;;31.13;25.65;;;17.80;99.90;;;;;;5041083;28;20037;-70
2022/08/19 04:22:45;;;;;;;28.55;25.27;;;17.80;99.90;;;;;;5039714;28;20516;-69
2022/08/19 04:25:17;;;;;;;35.55;28.60;;;17.80;99.90;;;;;;5038293;28;20045;-69
2022/08/19 04:27:49;;;;;;;36.17;29.02;;;17.80;99.90;;;;;;5039822;28;20037;-69
2022/08/19 04:30:22;;;;;;;33.80;29.65;;;17.80;99.90;;;;;;5041999;28;20091;-69
2022/08/19 04:32:54;;;;;;;37.20;28.85;;;17.90;99.90;;;;;;5026294;28;20038;-69
2022/08/19 04:35:25;;;;;;;34.83;28.77;;;17.80;99.90;;;;;;5048653;28;20095;-69
2022/08/19 04:37:57;;;;;;;35.83;28.85;;;17.90;99.90;;;;;;5041788;28;20064;-70
2022/08/19 04:43:14;;;;;;;35.90;29.13;;;17.80;99.90;;;;;;5041153;28;20052;-69
2022/08/19 04:45:46;;;;;;;35.92;29.13;;;17.80;99.90;;;;;;5032987;28;20057;-70
2022/08/19 04:48:25;;;;;;;36.83;29.77;;;17.80;99.90;;;;;;5032062;28;20052;-69
2022/08/19 04:50:58;;;;;;;35.25;28.85;;;17.70;99.90;;;;;;5038568;28;20037;-69
2022/08/19 04:53:31;;;;;;;35.75;29.60;;;17.70;99.90;;;;;;5031321;28;20051;-69
2022/08/19 04:56:12;;;;;;;35.85;29.92;;;17.70;99.90;;;;;;5042918;28;20073;-69
2022/08/19 04:58:44;;;;;;;32.63;27.92;;;17.70;99.90;;;;;;5031713;28;20408;-69
2022/08/19 05:01:28;;;;;;;36.00;28.87;;;17.70;99.90;;;;;;5027469;28;20132;-69
2022/08/19 05:04:03;;;;;;;34.40;28.48;;;17.70;99.90;;;;;;5034351;28;20042;-69
2022/08/19 05:06:36;;;;;;;32.45;27.65;;;17.70;99.90;;;;;;5021485;28;20048;-69
2022/08/19 05:09:07;;;;;;;34.88;28.83;;;17.70;99.90;;;;;;5046410;28;20049;-70
2022/08/19 05:11:39;;;;;;;34.67;29.10;;;17.70;99.90;;;;;;5040460;28;20630;-70
2022/08/19 05:14:12;;;;;;;34.78;28.52;;;17.70;99.90;;;;;;5048350;28;20040;-70
2022/08/19 05:16:44;;;;;;;34.20;28.63;;;17.70;99.90;;;;;;5045184;28;20048;-69
2022/08/19 05:24:56;;;;;;;30.02;25.88;;;17.70;99.90;;;;;;5042693;28;20048;-70
2022/08/19 05:27:28;;;;;;;27.13;23.92;;;17.70;99.90;;;;;;5014900;28;20057;-69
2022/08/19 05:30:01;;;;;;;31.13;26.08;;;17.70;99.90;;;;;;5042316;28;20045;-69
2022/08/19 05:32:33;;;;;;;29.48;25.10;;;17.70;99.90;;;;;;5028743;28;20670;-72
2022/08/19 05:35:05;;;;;;;28.77;25.45;;;17.70;99.90;;;;;;5044888;28;20065;-68
2022/08/19 05:37:39;;;;;;;31.63;26.20;;;17.70;99.90;;;;;;5039613;28;20048;-69
2022/08/19 05:40:11;;;;;;;29.63;25.67;;;17.70;99.90;;;;;;5032736;28;20037;-70
2022/08/19 05:42:43;;;;;;;31.92;26.90;;;17.70;99.90;;;;;;5046799;28;20047;-68
2022/08/19 05:45:15;;;;;;;32.60;28.15;;;17.70;99.90;;;;;;5045611;28;20065;-69
2022/08/19 05:47:47;;;;;;;32.92;27.90;;;17.70;99.90;;;;;;5045816;28;20102;-69
2022/08/19 05:50:19;;;;;;;34.67;28.77;;;17.70;99.90;;;;;;5045956;28;20780;-69
2022/08/19 05:52:51;;;;;;;36.22;30.52;;;17.70;99.90;;;;;;5046089;28;20052;-71
2022/08/19 05:55:23;;;;;;;35.20;28.35;;;17.70;99.90;;;;;;5043659;28;20116;-69
2022/08/19 05:57:55;;;;;;;34.85;27.17;;;17.60;99.90;;;;;;5044740;28;20033;-70
2022/08/19 06:00:27;;;;;;;36.92;30.60;;;17.60;99.90;;;;;;5044386;28;20384;-69
2022/08/19 06:03:02;;;;;;;37.58;28.75;;;17.60;99.90;;;;;;5042906;28;20395;-70
2022/08/19 06:05:34;;;;;;;38.90;29.30;;;17.60;99.90;;;;;;5047170;28;20029;-68
2022/08/19 06:08:07;;;;;;;38.50;31.13;;;17.60;99.90;;;;;;5040710;28;20089;-70
2022/08/19 06:10:38;;;;;;;36.17;30.55;;;17.70;99.90;;;;;;5039435;28;20495;-70
2022/08/19 06:13:10;;;;;;;40.63;31.38;;;17.60;99.90;;;;;;5044711;28;20043;-70
2022/08/19 06:15:43;;;;;;;39.28;31.02;;;17.70;99.90;;;;;;5047404;28;20051;-69
2022/08/19 06:18:16;;;;;;;35.65;29.52;;;17.70;99.90;;;;;;5039729;28;20042;-69
2022/08/19 06:20:48;;;;;;;39.17;31.93;;;17.70;99.90;;;;;;5042469;28;20129;-69
2022/08/19 06:23:21;;;;;;;37.92;30.15;;;17.70;99.90;;;;;;5044115;28;20041;-70
2022/08/19 06:25:53;;;;;;;38.33;29.80;;;17.70;99.90;;;;;;5037271;28;20044;-71
2022/08/19 06:28:24;;;;;;;36.95;30.02;;;17.70;99.90;;;;;;5032924;28;20050;-70
2022/08/19 06:30:56;;;;;;;35.83;28.20;;;17.70;99.90;;;;;;5019924;28;20041;-70
2022/08/19 06:33:28;;;;;;;36.45;28.90;;;17.70;99.90;;;;;;5039018;28;20049;-70
2022/08/19 06:35:59;;;;;;;37.15;28.02;;;17.70;99.90;;;;;;5043021;28;20044;-71
2022/08/19 06:38:33;;;;;;;35.53;27.98;;;17.80;99.90;;;;;;5041582;28;20037;-70
2022/08/19 06:41:05;;;;;;;33.45;27.52;;;17.80;99.90;;;;;;5026482;28;20041;-70
2022/08/19 06:43:37;;;;;;;33.97;27.73;;;17.80;99.90;;;;;;5043784;28;20048;-70
2022/08/19 06:46:14;;;;;;;33.53;27.17;;;17.90;99.90;;;;;;5032603;28;20140;-70
2022/08/19 06:48:47;;;;;;;31.23;24.85;;;17.80;99.90;;;;;;5032521;28;20042;-69
2022/08/19 06:51:19;;;;;;;33.00;26.85;;;17.80;99.90;;;;;;5029561;28;20438;-71
2022/08/19 06:53:54;;;;;;;28.98;24.20;;;17.90;99.90;;;;;;5038652;28;20037;-69
2022/08/19 06:56:31;;;;;;;25.58;21.73;;;17.90;99.90;;;;;;5044136;28;20494;-69
2022/08/19 06:59:10;;;;;;;26.73;21.73;;;17.90;99.90;;;;;;5040562;28;20037;-69
2022/08/19 07:01:49;;;;;;;30.63;22.90;;;17.90;99.90;;;;;;5040147;28;20052;-70
2022/08/19 07:04:27;;;;;;;29.23;23.25;;;17.90;99.90;;;;;;5030057;28;20511;-70
2022/08/19 07:07:08;;;;;;;26.65;22.48;;;18.00;99.90;;;;;;5044717;28;20041;-70
2022/08/19 07:09:43;;;;;;;30.60;23.10;;;18.00;99.90;;;;;;5043035;28;20662;-69
2022/08/19 07:12:15;;;;;;;25.42;21.92;;;18.00;99.90;;;;;;5042303;28;20037;-70
2022/08/19 07:14:49;;;;;;;26.83;23.85;;;18.10;99.90;;;;;;5040282;28;20056;-70
2022/08/19 07:17:20;;;;;;;28.08;23.73;;;18.10;99.90;;;;;;5041593;28;20123;-69
2022/08/19 07:19:52;;;;;;;26.35;22.55;;;18.10;99.90;;;;;;5028467;28;20053;-69
2022/08/19 07:22:24;;;;;;;25.83;22.52;;;18.10;99.90;;;;;;5044751;28;20047;-70
2022/08/19 07:24:56;;;;;;;25.83;22.35;;;18.10;99.90;;;;;;5047397;28;20029;-70
2022/08/19 07:27:28;;;;;;;23.45;20.33;;;18.10;99.90;;;;;;5045144;28;20499;-70
2022/08/19 07:30:00;;;;;;;22.17;19.75;;;18.10;99.90;;;;;;5046564;28;20518;-71
2022/08/19 07:32:32;;;;;;;24.10;20.38;;;18.10;99.90;;;;;;5032917;28;20064;-72
2022/08/19 07:35:05;;;;;;;23.98;21.00;;;18.10;99.90;;;;;;5042819;28;20036;-70
2022/08/19 07:37:38;;;;;;;;;;;18.10;99.90;;;;;;5039221;28;20037;-70
2022/08/19 07:40:10;;;;;;;24.98;20.25;;;18.20;99.90;;;;;;5041477;28;19921;-69
2022/08/19 07:42:43;;;;;;;24.10;18.08;;;18.10;99.90;;;;;;5039005;28;20037;-70
2022/08/19 07:45:15;;;;;;;21.23;18.58;;;18.10;99.90;;;;;;5043257;28;20047;-69
2022/08/19 07:47:47;;;;;;;23.50;19.15;;;18.10;99.90;;;;;;5042000;28;20112;-70
2022/08/19 07:50:21;;;;;;;22.13;18.40;;;18.10;99.90;;;;;;5028611;28;20064;-69
2022/08/19 07:52:53;;;;;;;24.45;20.08;;;18.10;99.90;;;;;;5039652;28;20124;-70
2022/08/19 07:55:26;;;;;;;27.40;20.65;;;18.10;99.90;;;;;;5044221;28;20410;-70
2022/08/19 07:57:57;;;;;;;23.90;21.17;;;18.10;99.90;;;;;;5026645;28;20257;-70
2022/08/19 08:00:29;;;;;;;27.48;22.73;;;18.00;99.90;;;;;;5041224;28;20042;-70
2022/08/19 08:03:01;;;;;;;27.35;21.85;;;18.00;99.90;;;;;;5038563;28;20034;-70
2022/08/19 08:11:07;;;;;;;33.22;25.83;;;17.90;99.90;;;;;;5040112;28;20514;-70
2022/08/19 08:13:40;;;;;;;33.72;25.65;;;17.90;99.90;;;;;;5041062;28;20047;-70
2022/08/19 08:16:12;;;;;;;;;;;17.90;99.90;;;;;;5039988;28;20049;-70
2022/08/19 08:18:45;;;;;;;32.03;24.40;;;17.90;99.90;;;;;;5039588;28;19920;-70
2022/08/19 08:21:17;;;;;;;;;;;17.90;99.90;;;;;;5042652;28;20076;-69
2022/08/19 08:23:49;;;;;;;33.20;25.73;;;17.90;99.90;;;;;;5042179;28;19928;-70
2022/08/19 08:26:21;;;;;;;31.60;24.63;;;17.90;99.90;;;;;;5037724;28;20121;-70
2022/08/19 08:28:53;;;;;;;33.53;25.85;;;17.90;99.90;;;;;;5045338;28;20127;-70
2022/08/19 08:31:24;;;;;;;32.08;25.77;;;17.90;99.90;;;;;;5046046;28;20402;-73
2022/08/19 08:33:56;;;;;;;33.90;24.55;;;17.90;99.90;;;;;;5036091;28;20407;-69
2022/08/19 08:36:28;;;;;;;34.70;25.90;;;17.80;99.90;;;;;;5046617;28;20041;-70
2022/08/19 08:39:00;;;;;;;36.00;25.85;;;17.80;99.90;;;;;;5044627;28;20407;-70
2022/08/19 08:42:04;;;;;;;34.55;26.88;;;17.80;99.90;;;;;;5046118;28;20573;-70
2022/08/19 08:44:36;;;;;;;34.13;26.95;;;17.80;99.90;;;;;;5043822;28;20132;-70
2022/08/19 08:47:15;;;;;;;35.58;26.58;;;17.90;99.90;;;;;;5049493;28;20077;-70
2022/08/19 08:50:14;;;;;;;37.88;26.13;;;17.90;99.90;;;;;;5062012;23;20128;-72
2022/08/19 08:52:48;;;;;;;35.50;26.17;;;17.90;99.90;;;;;;5053597;28;20410;-72
2022/08/19 08:55:24;;;;;;;33.90;26.27;;;17.90;99.90;;;;;;5036477;28;20487;-73
2022/08/19 08:58:01;;;;;;;34.45;26.00;;;17.90;99.90;;;;;;5020905;28;20406;-71
2022/08/19 09:00:32;;;;;;;34.50;24.80;;;17.90;99.90;;;;;;5023416;28;20073;-72
2022/08/19 09:03:14;;;;;;;36.80;27.83;;;17.90;99.90;;;;;;5011406;28;20042;-71
2022/08/19 09:06:03;;;;;;;32.58;24.73;;;17.90;99.90;;;;;;5009600;28;20487;-72
2022/08/19 09:08:35;;;;;;;33.05;24.38;;;17.90;99.90;;;;;;5007434;28;20049;-73
2022/08/19 09:11:14;;;;;;;29.95;22.92;;;17.80;99.90;;;;;;5038680;28;20054;-72
2022/08/19 09:14:13;;;;;;;27.75;21.58;;;17.80;99.90;;;;;;5027376;28;20558;-72
2022/08/19 09:16:45;;;;;;;24.10;19.98;;;17.80;99.90;;;;;;5020224;28;20136;-72
2022/08/19 09:19:12;;;;;;;25.80;19.77;;;17.70;99.90;;;;;;5007346;28;20414;-72
2022/08/19 09:21:44;;;;;;;24.17;18.83;;;17.80;99.90;;;;;;5011017;28;20442;-72
2022/08/19 09:24:16;;;;;;;23.08;18.38;;;17.80;99.90;;;;;;5027445;28;20041;-72
2022/08/19 09:26:48;;;;;;;23.75;18.08;;;17.80;99.90;;;;;;5044930;28;20036;-72
2022/08/19 09:29:14;;;;;;;19.77;16.63;;;17.80;99.90;;;;;;5023178;28;20046;-72
2022/08/19 09:31:42;;;;;;;21.00;17.35;;;17.80;99.90;;;;;;5026067;28;20071;-72
2022/08/19 09:34:08;;;;;;;19.05;14.93;;;17.80;99.90;;;;;;5023725;28;20049;-72
2022/08/19 09:36:40;;;;;;;15.52;12.85;;;17.80;99.90;;;;;;5021216;28;20041;-71
2022/08/19 09:39:12;;;;;;;14.82;12.38;;;17.80;99.90;;;;;;5008173;28;20034;-72
2022/08/19 09:41:44;;;;;;;17.48;14.23;;;17.80;99.90;;;;;;5008984;28;20045;-72
2022/08/19 09:44:15;;;;;;;17.67;14.32;;;17.80;99.90;;;;;;5009375;28;20045;-72
2022/08/19 09:46:42;;;;;;;17.10;14.20;;;17.80;99.90;;;;;;5026437;28;20123;-73
2022/08/19 09:49:16;;;;;;;19.20;15.07;;;17.80;99.90;;;;;;4996716;28;20053;-71
2022/08/19 09:51:55;;;;;;;18.55;16.08;;;17.80;99.90;;;;;;5042189;28;20654;-72
2022/08/19 09:54:28;;;;;;;20.17;16.25;;;17.80;99.90;;;;;;5025742;28;20056;-72
2022/08/19 09:57:00;;;;;;;18.90;15.48;;;17.80;99.90;;;;;;5045595;28;20533;-71
2022/08/19 09:59:32;;;;;;;20.65;16.77;;;17.80;99.90;;;;;;5013103;28;20056;-72
2022/08/19 10:02:04;;;;;;;20.90;16.27;;;17.80;99.90;;;;;;5020060;28;20044;-71
2022/08/19 10:07:21;;;;;;;21.10;17.67;;;17.80;99.90;;;;;;5035387;28;20049;-72
2022/08/19 10:09:53;;;;;;;22.27;17.75;;;17.80;99.90;;;;;;5024771;28;20499;-72
2022/08/19 10:12:25;;;;;;;25.17;21.08;;;17.80;99.90;;;;;;5011453;28;20060;-71
2022/08/19 10:14:57;;;;;;;26.70;20.00;;;17.70;99.90;;;;;;5028302;28;20068;-72
2022/08/19 10:17:29;;;;;;;27.15;19.63;;;17.70;99.90;;;;;;5025936;28;20562;-72
2022/08/19 10:19:55;;;;;;;27.05;20.15;;;17.70;99.90;;;;;;5021369;28;20048;-72
2022/08/19 10:22:27;;;;;;;27.92;21.60;;;17.70;99.90;;;;;;5025869;28;20808;-72
2022/08/19 10:24:59;;;;;;;28.73;21.48;;;17.70;99.90;;;;;;5010461;28;20507;-72
2022/08/19 10:27:31;;;;;;;29.08;21.80;;;17.70;99.90;;;;;;5005440;28;20038;-72
2022/08/19 10:29:58;;;;;;;30.17;22.08;;;17.70;99.90;;;;;;5019457;28;20041;-74
2022/08/19 10:32:29;;;;;;;32.30;24.15;;;17.70;99.90;;;;;;4998818;28;20427;-72
2022/08/19 10:35:05;;;;;;;35.40;25.35;;;17.70;99.90;;;;;;5042760;28;20042;-72
2022/08/19 10:37:38;;;;;;;33.90;24.17;;;17.70;99.90;;;;;;5039293;28;20045;-71
2022/08/19 10:40:11;;;;;;;32.63;25.10;;;17.70;99.90;;;;;;5040217;28;20052;-72
2022/08/19 10:42:38;;;;;;;30.27;24.00;;;17.70;99.90;;;;;;5025965;28;20040;-72
2022/08/19 10:45:10;;;;;;;35.88;26.13;;;17.60;99.90;;;;;;5041029;28;20045;-72
2022/08/19 10:47:42;;;;;;;34.75;24.83;;;17.60;99.90;;;;;;5010455;28;20041;-72
2022/08/19 10:53:04;;;;;;;36.70;26.67;;;17.60;99.90;;;;;;5019597;28;20057;-72
2022/08/19 10:58:23;;;;;;;37.70;27.55;;;17.50;99.90;;;;;;5023021;28;20292;-72
2022/08/19 11:00:58;;;;;;;35.83;25.67;;;17.50;99.90;;;;;;5039239;28;20559;-72
2022/08/19 11:03:30;;;;;;;40.63;27.45;;;17.50;99.90;;;;;;5030559;28;20415;-71
2022/08/19 11:06:06;;;;;;;40.00;27.52;;;17.50;99.90;;;;;;4996210;28;20037;-72
2022/08/19 11:08:38;;;;;;;39.20;27.77;;;17.50;99.90;;;;;;5021550;28;20063;-72
2022/08/19 11:11:06;;;;;;;41.97;28.42;;;17.50;99.90;;;;;;5008520;28;20048;-72
2022/08/19 11:13:39;;;;;;;41.80;28.10;;;17.40;99.90;;;;;;5017878;28;20049;-71
2022/08/19 11:16:15;;;;;;;42.20;29.08;;;17.40;99.90;;;;;;5046784;28;20131;-74
2022/08/19 11:18:50;;;;;;;37.33;28.02;;;17.40;99.90;;;;;;5030391;28;20045;-72
2022/08/19 11:21:34;;;;;;;39.38;27.98;;;17.40;99.90;;;;;;5021721;28;20037;-72
2022/08/19 11:24:14;;;;;;;40.28;27.48;;;17.40;99.90;;;;;;5039673;28;20041;-73
2022/08/19 11:26:49;;;;;;;36.22;26.77;;;17.40;99.90;;;;;;5026647;28;20506;-73
2022/08/19 11:29:21;;;;;;;33.05;24.10;;;17.40;99.90;;;;;;5024016;28;20072;-73
2022/08/19 11:31:54;;;;;;;32.88;24.98;;;17.40;99.90;;;;;;5029660;28;20437;-72
2022/08/19 11:34:28;;;;;;;31.75;23.85;;;17.50;99.90;;;;;;4996113;28;20046;-72
2022/08/19 11:37:00;;;;;;;29.58;22.50;;;17.50;99.90;;;;;;5022820;28;20049;-72
2022/08/19 11:39:30;;;;;;;25.17;19.88;;;17.60;99.90;;;;;;5021291;28;20087;-72
2022/08/19 11:42:54;;;;;;;25.80;19.73;;;17.60;99.90;;;;;;5020949;28;20046;-72
2022/08/19 11:44:55;;;;;;;18.80;16.33;;;17.60;99.90;;;;;;5030619;28;20064;-72
2022/08/19 11:47:26;;;;;;;16.80;13.77;;;17.60;99.90;;;;;;5042687;28;20033;-72
2022/08/19 11:49:58;;;;;;;16.25;12.88;;;17.50;99.90;;;;;;5008764;28;20049;-74
2022/08/19 11:52:30;;;;;;;13.02;11.05;;;17.50;99.90;;;;;;5009432;28;20522;-75
2022/08/19 11:54:57;;;;;;;11.55;8.95;;;17.30;99.90;;;;;;5024779;28;20055;-74
2022/08/19 11:57:29;;;;;;;11.90;9.23;;;17.30;99.90;;;;;;5023373;28;20049;-75
2022/08/19 12:00:01;;;;;;;9.55;7.80;;;17.30;99.90;;;;;;5037596;28;20045;-75
2022/08/19 12:02:33;;;;;;;10.52;8.88;;;17.30;99.90;;;;;;5041355;28;20528;-72
2022/08/19 12:05:02;;;;;;;10.82;9.00;;;17.30;99.90;;;;;;5022168;28;20041;-72
2022/08/19 12:07:34;;;;;;;9.80;8.23;;;17.20;99.90;;;;;;5008600;28;20045;-72
2022/08/19 12:10:01;;;;;;;10.25;8.75;;;17.20;99.90;;;;;;5005882;28;20556;-72
2022/08/19 12:12:28;;;;;;;11.63;9.02;;;17.20;99.90;;;;;;5005257;28;20050;-72
2022/08/19 12:14:59;;;;;;;11.18;8.15;;;17.30;99.90;;;;;;5022054;28;20523;-73
2022/08/19 12:17:31;;;;;;;11.75;8.75;;;17.20;99.90;;;;;;5021769;28;20052;-72
2022/08/19 12:20:05;;;;;;;9.80;7.53;;;17.30;99.90;;;;;;5007171;28;20036;-71
2022/08/19 12:22:37;;;;;;;8.90;7.75;;;17.30;99.90;;;;;;5024640;28;20056;-72
2022/08/19 12:25:10;;;;;;;11.20;9.30;;;17.30;99.90;;;;;;5019902;28;20124;-71
2022/08/19 12:27:42;;;;;;;12.95;9.40;;;17.30;99.90;;;;;;5024856;28;20088;-71
2022/08/19 12:30:14;;;;;;;12.73;10.07;;;17.30;99.90;;;;;;5035055;28;20045;-72
2022/08/19 12:32:46;;;;;;;13.10;9.98;;;17.40;99.90;;;;;;5004518;28;20045;-72
2022/08/19 12:35:19;;;;;;;12.68;10.40;;;17.40;99.90;;;;;;5022078;28;20052;-72
2022/08/19 12:37:51;;;;;;;15.32;12.13;;;17.40;99.90;;;;;;5009334;28;20507;-73
2022/08/19 12:40:23;;;;;;;15.50;12.32;;;17.30;99.90;;;;;;5042228;28;20041;-72
2022/08/19 12:42:55;;;;;;;16.27;13.45;;;17.30;99.90;;;;;;5007338;28;20048;-73
2022/08/19 12:45:28;;;;;;;16.35;13.60;;;17.30;99.90;;;;;;5026520;28;20053;-72
2022/08/19 12:48:00;;;;;;;16.88;13.07;;;17.30;99.90;;;;;;4994210;28;20038;-72
2022/08/19 12:50:31;;;;;;;14.63;12.18;;;17.30;99.90;;;;;;5022870;28;20517;-72
2022/08/19 12:53:03;;;;;;;15.38;12.52;;;17.40;99.90;;;;;;5022838;28;20045;-71
2022/08/19 12:55:35;;;;;;;17.15;12.65;;;17.40;99.90;;;;;;5039857;28;20055;-72
2022/08/19 12:58:02;;;;;;;17.27;14.60;;;17.40;99.90;;;;;;5007151;28;20049;-72
2022/08/19 13:00:33;;;;;;;17.13;14.43;;;17.30;99.90;;;;;;5022979;28;20056;-72
2022/08/19 13:03:05;;;;;;;20.33;16.55;;;17.40;99.90;;;;;;5022909;28;20044;-73
2022/08/19 13:05:37;;;;;;;19.80;17.58;;;17.40;99.90;;;;;;5018855;28;20044;-72
2022/08/19 13:08:08;;;;;;;22.95;17.95;;;17.40;99.90;;;;;;5005704;28;20049;-72
2022/08/19 13:10:36;;;;;;;21.67;18.60;;;17.40;99.90;;;;;;5024566;28;20115;-71
2022/08/19 13:13:09;;;;;;;24.05;19.20;;;17.40;99.90;;;;;;5040747;28;20049;-72
2022/08/19 13:15:42;;;;;;;26.15;20.92;;;17.50;99.90;;;;;;5021115;28;20055;-72
2022/08/19 13:18:14;;;;;;;26.17;20.73;;;17.50;99.90;;;;;;5017840;28;20049;-72
2022/08/19 13:20:46;;;;;;;25.00;20.50;;;17.50;99.90;;;;;;5025086;28;20543;-72
2022/08/19 13:23:12;;;;;;;27.05;21.77;;;17.50;99.90;;;;;;5028284;28;20503;-72
2022/08/19 13:25:44;;;;;;;23.63;20.63;;;17.40;99.90;;;;;;5044517;28;20064;-72